VTD703 UWSK-UWSK
Flight info
| Callsign | VTD703 |
|---|---|
| Flight time | 0h 50m |
| Altitude | 1200 |
| Route | RA/A012 |
| Aircraft | DA40/L-SDF/C |
Departure
| Time | 2026-05-05 12:32 |
|---|---|
| Airport | Krasny Kut Airport (UWSK) |
Arrival
| Time | 2026-05-05 13:23 |
|---|---|
| Airport | Krasny Kut Airport (UWSK) |
| Time | Latitude | Longitude | Altitude | Speed | Heading |
|---|---|---|---|---|---|
| 2026-05-05 11:45 | 50.95567 | 46.94529 | 162 ft | 0 kts | 178° |
| 2026-05-05 12:26 | 50.95567 | 46.94530 | 160 ft | 1 kts | 177° |
| 2026-05-05 12:27 | 50.95545 | 46.94515 | 163 ft | 5 kts | 234° |
| 2026-05-05 12:27 | 50.95551 | 46.94451 | 163 ft | 11 kts | 291° |
| 2026-05-05 12:27 | 50.95604 | 46.94360 | 160 ft | 9 kts | 346° |
| 2026-05-05 12:27 | 50.95643 | 46.94378 | 160 ft | 1 kts | 31° |
| 2026-05-05 12:28 | 50.95649 | 46.94384 | 160 ft | 5 kts | 27° |
| 2026-05-05 12:28 | 50.95675 | 46.94413 | 160 ft | 3 kts | 90° |
| 2026-05-05 12:28 | 50.95654 | 46.94442 | 160 ft | 5 kts | 195° |
| 2026-05-05 12:28 | 50.95638 | 46.94385 | 160 ft | 9 kts | 272° |
| 2026-05-05 12:29 | 50.95643 | 46.94327 | 160 ft | 5 kts | 283° |
| 2026-05-05 12:29 | 50.95660 | 46.94275 | 161 ft | 5 kts | 324° |
| 2026-05-05 12:29 | 50.95678 | 46.94265 | 161 ft | 1 kts | 47° |
| 2026-05-05 12:29 | 50.95691 | 46.94296 | 161 ft | 5 kts | 33° |
| 2026-05-05 12:30 | 50.95693 | 46.94297 | 161 ft | 0 kts | 34° |
| 2026-05-05 12:31 | 50.95698 | 46.94302 | 160 ft | 10 kts | 31° |
| 2026-05-05 12:31 | 50.95910 | 46.94485 | 165 ft | 58 kts | 28° |
| 2026-05-05 12:31 | 50.96342 | 46.94833 | 276 ft | 75 kts | 26° |
| 2026-05-05 12:31 | 50.96817 | 46.95197 | 475 ft | 75 kts | 24° |
| 2026-05-05 12:32 | 50.97284 | 46.95575 | 644 ft | 77 kts | 27° |
| 2026-05-05 12:32 | 50.97784 | 46.95935 | 776 ft | 82 kts | 9° |
| 2026-05-05 12:32 | 50.98239 | 46.95486 | 976 ft | 86 kts | 297° |
| 2026-05-05 12:32 | 50.98502 | 46.94609 | 1142 ft | 87 kts | 297° |
| 2026-05-05 12:33 | 50.98757 | 46.93709 | 1191 ft | 92 kts | 293° |
| 2026-05-05 12:33 | 50.98994 | 46.92746 | 1320 ft | 92 kts | 292° |
| 2026-05-05 12:33 | 50.98839 | 46.91784 | 1386 ft | 103 kts | 223° |
| 2026-05-05 12:33 | 50.98173 | 46.91225 | 1324 ft | 114 kts | 205° |
| 2026-05-05 12:34 | 50.97443 | 46.90662 | 1284 ft | 119 kts | 206° |
| 2026-05-05 12:34 | 50.96698 | 46.90088 | 1309 ft | 120 kts | 204° |
| 2026-05-05 12:34 | 50.95921 | 46.89531 | 1284 ft | 123 kts | 204° |
| 2026-05-05 12:34 | 50.95132 | 46.88952 | 1218 ft | 127 kts | 205° |
| 2026-05-05 12:35 | 50.94345 | 46.88342 | 1176 ft | 125 kts | 206° |
| 2026-05-05 12:35 | 50.93526 | 46.88096 | 1212 ft | 119 kts | 166° |
| 2026-05-05 12:35 | 50.92949 | 46.88884 | 1241 ft | 114 kts | 109° |
| 2026-05-05 12:35 | 50.92739 | 46.90106 | 1221 ft | 117 kts | 102° |
| 2026-05-05 12:36 | 50.92579 | 46.91375 | 1225 ft | 117 kts | 101° |
| 2026-05-05 12:36 | 50.92088 | 46.92355 | 1215 ft | 120 kts | 151° |
| 2026-05-05 12:36 | 50.91271 | 46.92455 | 1226 ft | 117 kts | 194° |
| 2026-05-05 12:36 | 50.90611 | 46.91729 | 1188 ft | 120 kts | 238° |
| 2026-05-05 12:37 | 50.90533 | 46.90462 | 1189 ft | 121 kts | 295° |
| 2026-05-05 12:37 | 50.91077 | 46.89476 | 1176 ft | 121 kts | 315° |
| 2026-05-05 12:37 | 50.91639 | 46.88488 | 1167 ft | 120 kts | 313° |
| 2026-05-05 12:37 | 50.92192 | 46.87493 | 1133 ft | 120 kts | 313° |
| 2026-05-05 12:38 | 50.92729 | 46.86508 | 1165 ft | 116 kts | 314° |
| 2026-05-05 12:38 | 50.93268 | 46.85568 | 1185 ft | 115 kts | 315° |
| 2026-05-05 12:38 | 50.93830 | 46.84662 | 1195 ft | 116 kts | 319° |
| 2026-05-05 12:38 | 50.94439 | 46.83850 | 1200 ft | 114 kts | 326° |
| 2026-05-05 12:39 | 50.95075 | 46.83116 | 1224 ft | 111 kts | 326° |
| 2026-05-05 12:39 | 50.95705 | 46.82414 | 1241 ft | 109 kts | 328° |
| 2026-05-05 12:39 | 50.96348 | 46.81755 | 1229 ft | 114 kts | 330° |
| 2026-05-05 12:39 | 50.97032 | 46.81106 | 1232 ft | 115 kts | 334° |
| 2026-05-05 12:40 | 50.97731 | 46.80519 | 1263 ft | 113 kts | 334° |
| 2026-05-05 12:40 | 50.98458 | 46.79988 | 1248 ft | 115 kts | 340° |
| 2026-05-05 12:40 | 50.99215 | 46.79558 | 1234 ft | 117 kts | 343° |
| 2026-05-05 12:40 | 50.99989 | 46.79127 | 1193 ft | 118 kts | 337° |
| 2026-05-05 12:41 | 51.00700 | 46.78507 | 1196 ft | 115 kts | 334° |
| 2026-05-05 12:41 | 51.01408 | 46.77947 | 1228 ft | 112 kts | 335° |
| 2026-05-05 12:41 | 51.02093 | 46.77383 | 1259 ft | 110 kts | 334° |
| 2026-05-05 12:41 | 51.02779 | 46.76846 | 1252 ft | 111 kts | 337° |
| 2026-05-05 12:42 | 51.03496 | 46.76315 | 1209 ft | 116 kts | 336° |
| 2026-05-05 12:42 | 51.04239 | 46.75759 | 1169 ft | 118 kts | 336° |
| 2026-05-05 12:42 | 51.04969 | 46.75258 | 1200 ft | 113 kts | 340° |
| 2026-05-05 12:42 | 51.05666 | 46.74758 | 1234 ft | 108 kts | 334° |
| 2026-05-05 12:43 | 51.06322 | 46.74175 | 1249 ft | 108 kts | 332° |
| 2026-05-05 12:43 | 51.06984 | 46.73599 | 1243 ft | 109 kts | 334° |
| 2026-05-05 12:43 | 51.07658 | 46.73016 | 1220 ft | 111 kts | 332° |
| 2026-05-05 12:43 | 51.08293 | 46.72315 | 1204 ft | 112 kts | 309° |
| 2026-05-05 12:44 | 51.08441 | 46.71125 | 1171 ft | 116 kts | 257° |
| 2026-05-05 12:44 | 51.08019 | 46.70069 | 1221 ft | 111 kts | 231° |
| 2026-05-05 12:44 | 51.07539 | 46.69091 | 1194 ft | 114 kts | 235° |
| 2026-05-05 12:44 | 51.07065 | 46.68077 | 1164 ft | 115 kts | 231° |
| 2026-05-05 12:45 | 51.06545 | 46.67118 | 1144 ft | 113 kts | 230° |
| 2026-05-05 12:45 | 51.06042 | 46.66172 | 1141 ft | 112 kts | 232° |
| 2026-05-05 12:45 | 51.05572 | 46.65177 | 1107 ft | 114 kts | 234° |
| 2026-05-05 12:45 | 51.05077 | 46.64193 | 1143 ft | 114 kts | 232° |
| 2026-05-05 12:46 | 51.04589 | 46.63201 | 1176 ft | 114 kts | 231° |
| 2026-05-05 12:46 | 51.04102 | 46.62209 | 1197 ft | 114 kts | 233° |
| 2026-05-05 12:46 | 51.03615 | 46.61215 | 1195 ft | 114 kts | 232° |
| 2026-05-05 12:46 | 51.03123 | 46.60227 | 1203 ft | 113 kts | 233° |
| 2026-05-05 12:47 | 51.02647 | 46.59224 | 1195 ft | 114 kts | 234° |
| 2026-05-05 12:47 | 51.02160 | 46.58229 | 1199 ft | 114 kts | 230° |
| 2026-05-05 12:47 | 51.01637 | 46.57298 | 1202 ft | 112 kts | 232° |
| 2026-05-05 12:47 | 51.01147 | 46.56313 | 1188 ft | 114 kts | 233° |
| 2026-05-05 12:48 | 51.00660 | 46.55328 | 1201 ft | 113 kts | 234° |
| 2026-05-05 12:48 | 51.00205 | 46.54312 | 1227 ft | 113 kts | 230° |
| 2026-05-05 12:48 | 50.99540 | 46.53625 | 1224 ft | 115 kts | 199° |
| 2026-05-05 12:48 | 50.98770 | 46.53357 | 1243 ft | 114 kts | 194° |
| 2026-05-05 12:49 | 50.98123 | 46.52661 | 1180 ft | 118 kts | 232° |
| 2026-05-05 12:49 | 50.97630 | 46.51669 | 1249 ft | 110 kts | 233° |
| 2026-05-05 12:49 | 50.97158 | 46.50674 | 1208 ft | 116 kts | 234° |
| 2026-05-05 12:49 | 50.96677 | 46.49645 | 1168 ft | 119 kts | 233° |
| 2026-05-05 12:50 | 50.96167 | 46.48606 | 1177 ft | 114 kts | 234° |
| 2026-05-05 12:50 | 50.95700 | 46.47623 | 1186 ft | 112 kts | 233° |
| 2026-05-05 12:50 | 50.95212 | 46.46651 | 1137 ft | 114 kts | 234° |
| 2026-05-05 12:50 | 50.94717 | 46.45664 | 1111 ft | 114 kts | 232° |
| 2026-05-05 12:51 | 50.94226 | 46.44709 | 1113 ft | 111 kts | 233° |
| 2026-05-05 12:51 | 50.93750 | 46.43715 | 1081 ft | 114 kts | 234° |
| 2026-05-05 12:51 | 50.93252 | 46.42776 | 1137 ft | 109 kts | 233° |
| 2026-05-05 12:51 | 50.92765 | 46.41847 | 1189 ft | 109 kts | 233° |
| 2026-05-05 12:52 | 50.92304 | 46.40895 | 1239 ft | 109 kts | 234° |
| 2026-05-05 12:52 | 50.91831 | 46.39925 | 1255 ft | 113 kts | 234° |
| 2026-05-05 12:52 | 50.91338 | 46.38924 | 1237 ft | 117 kts | 233° |
| 2026-05-05 12:52 | 50.90836 | 46.37926 | 1235 ft | 115 kts | 234° |
| 2026-05-05 12:53 | 50.90370 | 46.36907 | 1228 ft | 118 kts | 234° |
| 2026-05-05 12:53 | 50.89875 | 46.35855 | 1238 ft | 119 kts | 236° |
| 2026-05-05 12:53 | 50.89367 | 46.34844 | 1189 ft | 119 kts | 231° |
| 2026-05-05 12:53 | 50.88843 | 46.33832 | 1139 ft | 119 kts | 233° |
| 2026-05-05 12:54 | 50.87847 | 46.31796 | 1109 ft | 115 kts | 233° |
| 2026-05-05 12:54 | 50.87364 | 46.30779 | 1083 ft | 115 kts | 237° |
| 2026-05-05 12:54 | 50.86917 | 46.29773 | 1137 ft | 108 kts | 238° |
| 2026-05-05 12:55 | 50.86496 | 46.28824 | 1225 ft | 103 kts | 234° |
| 2026-05-05 12:55 | 50.86059 | 46.27915 | 1221 ft | 106 kts | 236° |
| 2026-05-05 12:55 | 50.85625 | 46.26952 | 1248 ft | 107 kts | 237° |
| 2026-05-05 12:55 | 50.85200 | 46.25965 | 1265 ft | 112 kts | 236° |
| 2026-05-05 12:56 | 50.84708 | 46.25020 | 1302 ft | 114 kts | 231° |
| 2026-05-05 12:56 | 50.84179 | 46.24055 | 1271 ft | 120 kts | 231° |
| 2026-05-05 12:56 | 50.83643 | 46.23019 | 1246 ft | 123 kts | 233° |
| 2026-05-05 12:56 | 50.83112 | 46.21958 | 1213 ft | 123 kts | 235° |
| 2026-05-05 12:57 | 50.82613 | 46.20873 | 1271 ft | 120 kts | 235° |
| 2026-05-05 12:57 | 50.82256 | 46.20181 | 1264 ft | 120 kts | 232° |
| 2026-05-05 12:57 | 50.81548 | 46.18829 | 1265 ft | 121 kts | 234° |
| 2026-05-05 12:57 | 50.81018 | 46.17779 | 1224 ft | 125 kts | 233° |
| 2026-05-05 12:58 | 50.80662 | 46.17057 | 1194 ft | 124 kts | 235° |
| 2026-05-05 12:58 | 50.80145 | 46.15984 | 1208 ft | 121 kts | 234° |
| 2026-05-05 12:58 | 50.79630 | 46.14924 | 1211 ft | 122 kts | 234° |
| 2026-05-05 12:58 | 50.79132 | 46.13812 | 1166 ft | 126 kts | 238° |
| 2026-05-05 12:59 | 50.78658 | 46.12648 | 1156 ft | 125 kts | 240° |
| 2026-05-05 12:59 | 50.78209 | 46.11486 | 1179 ft | 122 kts | 241° |
| 2026-05-05 12:59 | 50.77770 | 46.10353 | 1186 ft | 120 kts | 241° |
| 2026-05-05 13:00 | 50.76978 | 46.08054 | 1150 ft | 120 kts | 237° |
| 2026-05-05 13:00 | 50.76281 | 46.07386 | 1144 ft | 118 kts | 187° |
| 2026-05-05 13:01 | 50.74220 | 46.09136 | 1222 ft | 112 kts | 142° |
| 2026-05-05 13:01 | 50.73570 | 46.09811 | 1243 ft | 112 kts | 144° |
| 2026-05-05 13:01 | 50.72906 | 46.10449 | 1242 ft | 113 kts | 146° |
| 2026-05-05 13:01 | 50.72243 | 46.11100 | 1195 ft | 113 kts | 146° |
| 2026-05-05 13:02 | 50.71582 | 46.11769 | 1217 ft | 113 kts | 146° |
| 2026-05-05 13:02 | 50.70901 | 46.12422 | 1240 ft | 116 kts | 147° |
| 2026-05-05 13:02 | 50.70226 | 46.13107 | 1271 ft | 116 kts | 142° |
| 2026-05-05 13:02 | 50.69555 | 46.13808 | 1240 ft | 116 kts | 146° |
| 2026-05-05 13:03 | 50.68862 | 46.14483 | 1185 ft | 118 kts | 146° |
| 2026-05-05 13:03 | 50.68167 | 46.15197 | 1179 ft | 121 kts | 144° |
| 2026-05-05 13:03 | 50.67471 | 46.15898 | 1229 ft | 115 kts | 144° |
| 2026-05-05 13:03 | 50.66798 | 46.16596 | 1208 ft | 118 kts | 142° |
| 2026-05-05 13:04 | 50.66122 | 46.17359 | 1155 ft | 119 kts | 127° |
| 2026-05-05 13:04 | 50.65918 | 46.18542 | 1190 ft | 110 kts | 80° |
| 2026-05-05 13:04 | 50.66236 | 46.19638 | 1183 ft | 111 kts | 57° |
| 2026-05-05 13:04 | 50.66643 | 46.20662 | 1248 ft | 111 kts | 57° |
| 2026-05-05 13:05 | 50.67058 | 46.21707 | 1260 ft | 114 kts | 56° |
| 2026-05-05 13:05 | 50.67459 | 46.22808 | 1269 ft | 118 kts | 58° |
| 2026-05-05 13:05 | 50.67866 | 46.23954 | 1168 ft | 122 kts | 62° |
| 2026-05-05 13:05 | 50.68263 | 46.25122 | 1122 ft | 121 kts | 58° |
| 2026-05-05 13:06 | 50.68690 | 46.26243 | 1129 ft | 117 kts | 57° |
| 2026-05-05 13:06 | 50.69115 | 46.27335 | 1102 ft | 116 kts | 57° |
| 2026-05-05 13:06 | 50.69526 | 46.28403 | 1131 ft | 113 kts | 58° |
| 2026-05-05 13:06 | 50.69927 | 46.29469 | 1149 ft | 112 kts | 56° |
| 2026-05-05 13:07 | 50.70361 | 46.30504 | 1167 ft | 114 kts | 56° |
| 2026-05-05 13:07 | 50.70764 | 46.31575 | 1173 ft | 115 kts | 60° |
| 2026-05-05 13:07 | 50.71155 | 46.32658 | 1161 ft | 113 kts | 57° |
| 2026-05-05 13:07 | 50.71575 | 46.33702 | 1188 ft | 111 kts | 56° |
| 2026-05-05 13:08 | 50.72015 | 46.34727 | 1205 ft | 114 kts | 57° |
| 2026-05-05 13:08 | 50.72423 | 46.35787 | 1217 ft | 113 kts | 57° |
| 2026-05-05 13:08 | 50.72829 | 46.36854 | 1184 ft | 114 kts | 58° |
| 2026-05-05 13:08 | 50.73215 | 46.37943 | 1167 ft | 113 kts | 59° |
| 2026-05-05 13:09 | 50.73602 | 46.39005 | 1137 ft | 112 kts | 58° |
| 2026-05-05 13:09 | 50.74011 | 46.40063 | 1147 ft | 113 kts | 57° |
| 2026-05-05 13:09 | 50.74420 | 46.41107 | 1180 ft | 110 kts | 57° |
| 2026-05-05 13:09 | 50.74820 | 46.42136 | 1170 ft | 111 kts | 57° |
| 2026-05-05 13:10 | 50.75206 | 46.43181 | 1144 ft | 110 kts | 60° |
| 2026-05-05 13:10 | 50.75579 | 46.44244 | 1119 ft | 110 kts | 60° |
| 2026-05-05 13:10 | 50.75968 | 46.45277 | 1162 ft | 110 kts | 58° |
| 2026-05-05 13:10 | 50.76365 | 46.46331 | 1221 ft | 113 kts | 58° |
| 2026-05-05 13:11 | 50.76780 | 46.47407 | 1256 ft | 117 kts | 59° |
| 2026-05-05 13:11 | 50.77199 | 46.48533 | 1167 ft | 122 kts | 58° |
| 2026-05-05 13:11 | 50.77638 | 46.49650 | 1165 ft | 118 kts | 58° |
| 2026-05-05 13:11 | 50.78052 | 46.50768 | 1184 ft | 118 kts | 59° |
| 2026-05-05 13:12 | 50.78461 | 46.51898 | 1191 ft | 118 kts | 60° |
| 2026-05-05 13:12 | 50.78844 | 46.53023 | 1153 ft | 115 kts | 61° |
| 2026-05-05 13:12 | 50.79211 | 46.54111 | 1197 ft | 109 kts | 59° |
| 2026-05-05 13:12 | 50.79599 | 46.55150 | 1189 ft | 111 kts | 58° |
| 2026-05-05 13:13 | 50.79981 | 46.56209 | 1207 ft | 110 kts | 60° |
| 2026-05-05 13:13 | 50.80369 | 46.57264 | 1196 ft | 112 kts | 57° |
| 2026-05-05 13:13 | 50.80773 | 46.58327 | 1146 ft | 115 kts | 60° |
| 2026-05-05 13:13 | 50.81153 | 46.59437 | 1145 ft | 114 kts | 61° |
| 2026-05-05 13:14 | 50.81557 | 46.60511 | 1192 ft | 113 kts | 57° |
| 2026-05-05 13:14 | 50.82006 | 46.61507 | 1246 ft | 113 kts | 56° |
| 2026-05-05 13:14 | 50.82419 | 46.62571 | 1251 ft | 115 kts | 59° |
| 2026-05-05 13:14 | 50.82825 | 46.63673 | 1222 ft | 116 kts | 60° |
| 2026-05-05 13:15 | 50.83224 | 46.64808 | 1182 ft | 118 kts | 60° |
| 2026-05-05 13:15 | 50.83606 | 46.65938 | 1221 ft | 114 kts | 59° |
| 2026-05-05 13:15 | 50.84002 | 46.67021 | 1217 ft | 114 kts | 59° |
| 2026-05-05 13:15 | 50.84427 | 46.68086 | 1190 ft | 115 kts | 57° |
| 2026-05-05 13:16 | 50.84830 | 46.69174 | 1202 ft | 115 kts | 61° |
| 2026-05-05 13:16 | 50.85221 | 46.70271 | 1223 ft | 114 kts | 61° |
| 2026-05-05 13:16 | 50.85598 | 46.71390 | 1182 ft | 117 kts | 63° |
| 2026-05-05 13:16 | 50.85952 | 46.72562 | 1091 ft | 119 kts | 65° |
| 2026-05-05 13:17 | 50.86277 | 46.73760 | 994 ft | 120 kts | 66° |
| 2026-05-05 13:17 | 50.86666 | 46.74874 | 1002 ft | 113 kts | 55° |
| 2026-05-05 13:17 | 50.87101 | 46.75898 | 963 ft | 113 kts | 57° |
| 2026-05-05 13:17 | 50.87499 | 46.77018 | 861 ft | 117 kts | 62° |
| 2026-05-05 13:18 | 50.87879 | 46.78120 | 862 ft | 112 kts | 58° |
| 2026-05-05 13:18 | 50.88277 | 46.79171 | 843 ft | 111 kts | 61° |
| 2026-05-05 13:18 | 50.88648 | 46.80250 | 882 ft | 112 kts | 60° |
| 2026-05-05 13:18 | 50.89025 | 46.81343 | 959 ft | 112 kts | 62° |
| 2026-05-05 13:19 | 50.89381 | 46.82437 | 1051 ft | 111 kts | 61° |
| 2026-05-05 13:19 | 50.89740 | 46.83494 | 1146 ft | 107 kts | 62° |
| 2026-05-05 13:19 | 50.90085 | 46.84557 | 1100 ft | 113 kts | 64° |
| 2026-05-05 13:19 | 50.90444 | 46.85683 | 1050 ft | 113 kts | 64° |
| 2026-05-05 13:20 | 50.90783 | 46.86743 | 1068 ft | 103 kts | 62° |
| 2026-05-05 13:20 | 50.91113 | 46.87720 | 1027 ft | 100 kts | 62° |
| 2026-05-05 13:20 | 50.91464 | 46.88638 | 998 ft | 93 kts | 56° |
| 2026-05-05 13:20 | 50.91813 | 46.89442 | 923 ft | 88 kts | 56° |
| 2026-05-05 13:21 | 50.92157 | 46.90231 | 862 ft | 87 kts | 53° |
| 2026-05-05 13:21 | 50.92492 | 46.91020 | 803 ft | 84 kts | 57° |
| 2026-05-05 13:21 | 50.92817 | 46.91785 | 739 ft | 84 kts | 42° |
| 2026-05-05 13:21 | 50.93310 | 46.92303 | 634 ft | 85 kts | 28° |
| 2026-05-05 13:22 | 50.93831 | 46.92730 | 556 ft | 83 kts | 28° |
| 2026-05-05 13:22 | 50.94338 | 46.93149 | 456 ft | 80 kts | 28° |
| 2026-05-05 13:22 | 50.94815 | 46.93558 | 371 ft | 77 kts | 29° |
| 2026-05-05 13:22 | 50.95289 | 46.93967 | 263 ft | 79 kts | 28° |
| 2026-05-05 13:23 | 50.95763 | 46.94353 | 169 ft | 67 kts | 31° |
| 2026-05-05 13:23 | 50.96073 | 46.94618 | 171 ft | 38 kts | 25° |
| 2026-05-05 13:23 | 50.96168 | 46.94722 | 172 ft | 6 kts | 93° |
| 2026-05-05 13:23 | 50.96148 | 46.94775 | 171 ft | 6 kts | 160° |
| 2026-05-05 13:24 | 50.96098 | 46.94757 | 170 ft | 12 kts | 204° |
| 2026-05-05 13:24 | 50.95993 | 46.94680 | 169 ft | 19 kts | 206° |
| 2026-05-05 13:24 | 50.95856 | 46.94566 | 166 ft | 22 kts | 208° |
| 2026-05-05 13:24 | 50.95743 | 46.94478 | 163 ft | 14 kts | 194° |
| 2026-05-05 13:25 | 50.95712 | 46.94479 | 162 ft | 0 kts | 152° |